Time;durP1;ratioP1;P1;durP2;ratioP2;P2;SDS_P1;SDS_P2;PMS_P1;PMS_P2;Temp;Humidity;BMP_temperature;BMP_pressure;BME280_temperature;BME280_humidity;BME280_pressure;Samples;Min_cycle;Max_cycle;Signal;HPM_P1;HPM_P2
2022/04/28 00:00:10;;;;;;;5.80;4.75;;;23.20;61.20;;;;;;5076110;28;20474;-67
2022/04/28 00:02:37;;;;;;;8.13;6.03;;;23.10;61.20;;;;;;5076433;28;20045;-67
2022/04/28 00:05:05;;;;;;;9.05;5.70;;;23.10;61.30;;;;;;5076479;28;20067;-67
2022/04/28 00:07:32;;;;;;;7.00;4.90;;;23.20;61.30;;;;;;5076135;28;20440;-67
2022/04/28 00:09:59;;;;;;;6.20;4.80;;;23.10;61.30;;;;;;5076259;28;20048;-67
2022/04/28 00:12:25;;;;;;;7.43;4.80;;;23.00;61.10;;;;;;5076251;28;20104;-67
2022/04/28 00:14:52;;;;;;;7.07;5.38;;;23.20;61.20;;;;;;5079591;28;20070;-67
2022/04/28 00:17:18;;;;;;;7.93;5.35;;;23.20;61.20;;;;;;5080425;28;20101;-67
2022/04/28 00:19:44;;;;;;;6.13;4.57;;;23.20;61.00;;;;;;5080078;28;20116;-67
2022/04/28 00:22:11;;;;;;;7.32;5.03;;;23.20;60.90;;;;;;5080340;28;20041;-67
2022/04/28 00:24:38;;;;;;;7.10;5.00;;;23.20;60.90;;;;;;5080244;28;20040;-67
2022/04/28 00:27:04;;;;;;;8.60;4.93;;;23.20;60.90;;;;;;5080121;28;20063;-67
2022/04/28 00:29:30;;;;;;;6.03;5.00;;;23.10;60.90;;;;;;5080177;28;20065;-67
2022/04/28 00:31:56;;;;;;;5.13;4.13;;;23.10;61.00;;;;;;5079892;28;20082;-67
2022/04/28 00:34:24;;;;;;;8.27;5.40;;;23.10;61.00;;;;;;5079731;28;20108;-67
2022/04/28 00:36:50;;;;;;;6.07;4.63;;;23.10;61.00;;;;;;5080158;28;20041;-67
2022/04/28 00:39:16;;;;;;;5.68;4.32;;;23.10;61.10;;;;;;5079320;28;20048;-67
2022/04/28 00:41:42;;;;;;;5.03;4.03;;;23.00;61.10;;;;;;5078780;28;20041;-67
2022/04/28 00:44:11;;;;;;;7.10;4.47;;;23.10;61.20;;;;;;5079922;28;20037;-68
2022/04/28 00:46:38;;;;;;;5.95;4.10;;;23.10;61.00;;;;;;5079944;28;20032;-67
2022/04/28 00:51:50;;;;;;;7.53;3.90;;;23.20;60.90;;;;;;5078951;28;20047;-66
2022/04/28 00:54:17;;;;;;;5.72;3.78;;;23.20;60.90;;;;;;5079713;28;20039;-67
2022/04/28 00:56:43;;;;;;;6.22;3.88;;;23.20;60.80;;;;;;5079420;28;20041;-67
2022/04/28 00:59:10;;;;;;;6.32;5.00;;;23.20;60.70;;;;;;5079219;28;20056;-67
2022/04/28 01:01:37;;;;;;;6.32;3.95;;;23.20;60.50;;;;;;5078640;28;20124;-67
2022/04/28 01:04:04;;;;;;;5.57;4.00;;;23.30;60.50;;;;;;5079451;28;20045;-67
2022/04/28 01:06:31;;;;;;;7.45;4.25;;;23.20;60.40;;;;;;5078897;28;20033;-67
2022/04/28 01:08:57;;;;;;;6.68;4.40;;;23.20;60.50;;;;;;5078491;28;20037;-67
2022/04/28 01:11:25;;;;;;;6.97;3.90;;;23.20;60.60;;;;;;5078673;28;20068;-67
2022/04/28 01:14:00;;;;;;;5.07;3.88;;;23.10;60.50;;;;;;5078650;28;20052;-67
2022/04/28 01:16:36;;;;;;;6.70;4.05;;;23.10;60.60;;;;;;5078543;28;20051;-67
2022/04/28 01:19:02;;;;;;;6.20;4.30;;;23.10;60.60;;;;;;5078662;28;20045;-67
2022/04/28 01:21:30;;;;;;;4.80;3.65;;;23.00;60.70;;;;;;5079036;28;20117;-67
2022/04/28 01:24:02;;;;;;;6.65;4.30;;;23.00;60.70;;;;;;5078332;28;20041;-67
2022/04/28 01:26:28;;;;;;;4.07;3.15;;;23.10;60.80;;;;;;5077468;28;20036;-67
2022/04/28 01:28:54;;;;;;;5.35;3.70;;;23.10;60.70;;;;;;5079116;28;20044;-67
2022/04/28 01:31:20;;;;;;;8.63;4.40;;;23.10;60.50;;;;;;5078018;28;20041;-67
2022/04/28 01:33:54;;;;;;;8.13;3.85;;;23.10;60.50;;;;;;5078363;28;20049;-67
2022/04/28 01:36:21;;;;;;;5.63;3.53;;;23.20;60.50;;;;;;5078287;28;20041;-67
2022/04/28 01:38:48;;;;;;;5.05;3.80;;;23.20;60.40;;;;;;5078096;28;20037;-67
2022/04/28 01:41:15;;;;;;;6.25;4.07;;;23.20;60.20;;;;;;5077860;28;20072;-67
2022/04/28 01:43:41;;;;;;;6.63;3.80;;;23.30;60.10;;;;;;5078154;28;20033;-67
2022/04/28 01:46:11;;;;;;;4.95;3.05;;;23.40;59.80;;;;;;5077980;28;20045;-67
2022/04/28 01:48:55;;;;;;;6.60;4.03;;;23.30;59.60;;;;;;5077803;28;20052;-67
2022/04/28 01:54:57;;;;;;;3.22;2.80;;;23.40;59.30;;;;;;5077483;28;20052;-67
2022/04/28 01:57:42;;;;;;;6.13;3.88;;;23.50;59.40;;;;;;5078597;28;20041;-67
2022/04/28 02:00:20;;;;;;;5.25;3.65;;;23.40;59.30;;;;;;5077713;28;20079;-67
2022/04/28 02:02:54;;;;;;;7.47;3.95;;;23.40;59.50;;;;;;5077823;28;20055;-67
2022/04/28 02:05:21;;;;;;;4.63;3.78;;;23.30;59.50;;;;;;5078292;28;20033;-67
2022/04/28 02:07:48;;;;;;;7.00;3.92;;;23.30;59.80;;;;;;5077779;28;20037;-67
2022/04/28 02:10:14;;;;;;;4.40;3.60;;;23.30;60.00;;;;;;5077464;28;20040;-67
2022/04/28 02:12:40;;;;;;;4.90;3.55;;;23.10;60.00;;;;;;5077447;28;20041;-67
2022/04/28 02:15:26;;;;;;;4.28;3.33;;;23.10;60.00;;;;;;5077544;28;20104;-67
2022/04/28 02:18:16;;;;;;;5.88;3.83;;;23.20;60.00;;;;;;5077006;28;20097;-67
2022/04/28 02:20:42;;;;;;;3.63;3.33;;;23.30;59.90;;;;;;5077322;28;20045;-67
2022/04/28 02:23:08;;;;;;;4.82;3.20;;;23.30;59.90;;;;;;5077796;28;20100;-67
2022/04/28 02:25:37;;;;;;;4.93;3.80;;;23.30;59.80;;;;;;5077290;28;20067;-67
2022/04/28 02:28:03;;;;;;;3.90;3.10;;;23.20;59.90;;;;;;5077167;28;20033;-67
2022/04/28 02:30:29;;;;;;;5.55;3.45;;;23.20;60.00;;;;;;5077805;28;20056;-67
2022/04/28 02:33:11;;;;;;;5.38;3.63;;;23.10;59.90;;;;;;5077189;28;20057;-67
2022/04/28 02:35:56;;;;;;;13.10;4.00;;;23.20;60.00;;;;;;5077100;28;20052;-67
2022/04/28 02:38:22;;;;;;;5.57;3.40;;;23.20;60.00;;;;;;5077078;28;20037;-67
2022/04/28 02:40:52;;;;;;;3.95;3.25;;;23.30;60.00;;;;;;5077319;28;20060;-66
2022/04/28 02:43:19;;;;;;;4.68;3.55;;;23.20;60.10;;;;;;5077057;28;20036;-67
2022/04/28 02:45:53;;;;;;;5.88;3.70;;;23.20;60.10;;;;;;5076914;28;20040;-67
2022/04/28 02:48:25;;;;;;;5.07;3.00;;;23.10;60.20;;;;;;5076548;28;20044;-67
2022/04/28 02:50:52;;;;;;;3.75;3.08;;;23.10;60.10;;;;;;5076781;28;20052;-67
2022/04/28 02:53:19;;;;;;;5.15;3.47;;;23.00;60.10;;;;;;5076772;28;20041;-67
2022/04/28 02:55:51;;;;;;;5.38;3.30;;;23.10;60.40;;;;;;5076542;28;20037;-67
2022/04/28 02:58:17;;;;;;;7.53;4.13;;;23.10;60.20;;;;;;5076577;28;20047;-67
2022/04/28 03:00:43;;;;;;;4.38;3.58;;;23.20;60.10;;;;;;5076421;28;20055;-67
2022/04/28 03:03:10;;;;;;;3.47;2.97;;;23.10;60.00;;;;;;5076465;28;20049;-67
2022/04/28 03:10:46;;;;;;;3.78;3.10;;;23.10;60.10;;;;;;5076404;28;20075;-67
2022/04/28 03:11:09;;;;;;;4.57;3.15;;;23.10;59.90;;;;;;5077076;28;20052;-67
2022/04/28 03:13:36;;;;;;;5.25;3.42;;;23.10;60.00;;;;;;5059870;28;20048;-67
2022/04/28 03:16:02;;;;;;;4.03;3.13;;;23.20;59.90;;;;;;5076029;28;20113;-67
2022/04/28 03:18:57;;;;;;;7.03;3.65;;;23.20;59.70;;;;;;5067827;28;20045;-67
2022/04/28 03:21:24;;;;;;;4.13;2.55;;;23.20;59.50;;;;;;5076185;28;20045;-67
2022/04/28 03:23:51;;;;;;;5.60;2.72;;;23.20;59.70;;;;;;5076244;28;20036;-67
2022/04/28 03:26:17;;;;;;;6.05;3.60;;;23.20;59.80;;;;;;5075838;28;20036;-67
2022/04/28 03:28:43;;;;;;;4.07;3.67;;;23.10;59.80;;;;;;5076284;28;20063;-67
2022/04/28 03:31:10;;;;;;;5.63;3.25;;;23.00;59.70;;;;;;5076692;28;20044;-67
2022/04/28 03:33:56;;;;;;;4.32;3.28;;;23.00;59.80;;;;;;5075981;28;20037;-68
2022/04/28 03:39:07;;;;;;;5.63;3.35;;;22.90;60.30;;;;;;5076539;28;20051;-67
2022/04/28 03:41:33;;;;;;;6.18;3.70;;;23.10;60.50;;;;;;5075509;28;20037;-67
2022/04/28 03:43:59;;;;;;;8.52;4.00;;;23.00;60.40;;;;;;5075711;28;20047;-67
2022/04/28 03:46:25;;;;;;;7.40;4.20;;;22.90;60.50;;;;;;5075800;28;20040;-67
2022/04/28 03:48:51;;;;;;;6.70;4.03;;;23.00;60.50;;;;;;5058549;28;20029;-67
2022/04/28 03:51:18;;;;;;;4.43;3.60;;;23.00;60.50;;;;;;5075619;28;20056;-67
2022/04/28 03:53:44;;;;;;;3.72;2.72;;;22.90;60.60;;;;;;5075889;28;20045;-67
2022/04/28 03:56:10;;;;;;;4.93;3.38;;;23.00;60.30;;;;;;5075858;28;20040;-68
2022/04/28 03:58:37;;;;;;;3.85;3.20;;;23.00;59.70;;;;;;5075804;28;20033;-67
2022/04/28 04:01:03;;;;;;;3.65;3.20;;;23.20;59.40;;;;;;5075549;28;20052;-68
2022/04/28 04:04:02;;;;;;;3.65;3.20;;;23.20;59.10;;;;;;5075169;28;20029;-68
2022/04/28 04:06:29;;;;;;;5.78;3.47;;;23.30;59.20;;;;;;5074923;28;20037;-67
2022/04/28 04:09:15;;;;;;;3.78;3.30;;;23.40;59.10;;;;;;5075724;28;20049;-68
2022/04/28 04:11:41;;;;;;;3.85;3.10;;;23.40;59.10;;;;;;5075054;28;20045;-68
2022/04/28 04:14:08;;;;;;;4.45;3.40;;;23.30;59.00;;;;;;5074895;28;20474;-68
2022/04/28 04:16:34;;;;;;;4.25;3.45;;;23.50;62.70;;;;;;5075057;28;20047;-68
2022/04/28 04:19:07;;;;;;;3.70;3.33;;;23.60;64.80;;;;;;5074793;28;20037;-68
2022/04/28 04:21:34;;;;;;;6.50;3.80;;;23.80;63.40;;;;;;5074840;28;20072;-68
2022/04/28 04:24:01;;;;;;;4.72;3.78;;;23.80;62.60;;;;;;5074879;28;20036;-69
2022/04/28 04:26:27;;;;;;;3.83;2.88;;;23.90;60.10;;;;;;5058191;28;20044;-67
2022/04/28 04:28:53;;;;;;;5.10;4.20;;;23.80;59.30;;;;;;5074725;28;20486;-68
2022/04/28 04:34:47;;;;;;;4.20;3.80;;;23.70;58.10;;;;;;5074857;28;20074;-67
2022/04/28 04:37:15;;;;;;;5.80;3.72;;;23.70;57.80;;;;;;5074844;28;20040;-68
2022/04/28 04:39:41;;;;;;;3.75;3.17;;;23.80;57.50;;;;;;5074576;28;20037;-67
2022/04/28 04:42:08;;;;;;;4.30;3.45;;;23.80;57.20;;;;;;5074800;28;20075;-67
2022/04/28 04:44:35;;;;;;;5.72;3.22;;;23.70;57.00;;;;;;5074653;28;20086;-67
2022/04/28 04:47:01;;;;;;;4.97;3.40;;;23.80;56.80;;;;;;5074581;28;20044;-68
2022/04/28 04:49:32;;;;;;;3.63;3.25;;;23.80;56.60;;;;;;5075270;28;20065;-67
2022/04/28 04:52:14;;;;;;;4.05;2.97;;;23.90;56.50;;;;;;5075329;28;20067;-68
2022/04/28 04:54:57;;;;;;;4.07;3.40;;;23.70;56.10;;;;;;5057751;28;20040;-68
2022/04/28 04:57:24;;;;;;;4.93;3.00;;;23.80;56.10;;;;;;5075330;28;20041;-67
2022/04/28 04:59:50;;;;;;;3.25;2.63;;;23.80;56.00;;;;;;5074595;28;20041;-68
2022/04/28 05:02:17;;;;;;;4.07;3.20;;;23.70;55.90;;;;;;5078129;28;20041;-69
2022/04/28 05:05:01;;;;;;;3.00;2.35;;;23.70;55.10;;;;;;5078831;28;20045;-68
2022/04/28 05:07:34;;;;;;;4.95;2.92;;;23.70;55.20;;;;;;5078874;28;20052;-69
2022/04/28 05:10:00;;;;;;;2.83;2.58;;;23.70;55.60;;;;;;5078040;28;20044;-69
2022/04/28 05:12:26;;;;;;;2.25;1.85;;;23.80;57.70;;;;;;5078853;28;20098;-70
2022/04/28 05:14:56;;;;;;;2.33;1.67;;;23.80;58.00;;;;;;5077842;28;20115;-70
2022/04/28 05:17:28;;;;;;;1.17;1.17;;;23.80;57.40;;;;;;5078215;28;20041;-69
2022/04/28 05:20:14;;;;;;;4.25;3.35;;;23.90;58.00;;;;;;5067460;28;20080;-70
2022/04/28 05:22:59;;;;;;;1.65;1.55;;;23.90;57.30;;;;;;5078314;28;20052;-70
2022/04/28 05:25:48;;;;;;;1.48;1.38;;;23.90;57.30;;;;;;5067860;28;20036;-70
2022/04/28 05:28:33;;;;;;;3.05;2.17;;;24.10;57.60;;;;;;5078379;28;20117;-69
2022/04/28 05:31:28;;;;;;;3.40;2.40;;;24.10;59.10;;;;;;5058635;28;20037;-70
2022/04/28 05:34:17;;;;;;;6.20;3.78;;;24.10;59.30;;;;;;5075221;28;20045;-69
2022/04/28 05:36:53;;;;;;;2.85;2.17;;;24.10;60.00;;;;;;5077102;28;20033;-69
2022/04/28 05:39:23;;;;;;;6.55;4.70;;;24.30;58.70;;;;;;5077428;28;20041;-69
2022/04/28 05:41:53;;;;;;;6.85;4.30;;;24.10;53.10;;;;;;5077700;28;20051;-71
2022/04/28 05:47:05;;;;;;;4.85;3.67;;;23.90;51.10;;;;;;5076004;28;20063;-69
2022/04/28 05:49:32;;;;;;;4.80;3.35;;;23.80;52.40;;;;;;5076759;28;20080;-69
2022/04/28 05:52:00;;;;;;;4.35;3.55;;;23.80;52.00;;;;;;5060816;28;20049;-70
2022/04/28 05:54:27;;;;;;;3.55;2.63;;;23.90;51.90;;;;;;5099682;28;20053;-70
2022/04/28 05:56:53;;;;;;;3.97;3.15;;;24.00;54.20;;;;;;5076340;28;20045;-70
2022/04/28 05:59:20;;;;;;;3.53;2.90;;;23.90;53.30;;;;;;5058070;28;20037;-70
2022/04/28 06:01:46;;;;;;;4.50;3.25;;;24.00;51.90;;;;;;5076679;28;20151;-72
2022/04/28 06:04:17;;;;;;;4.70;3.40;;;24.00;53.10;;;;;;5076078;28;20621;-72
2022/04/28 06:06:46;;;;;;;4.00;3.45;;;24.00;52.50;;;;;;5076652;28;20065;-71
2022/04/28 06:09:30;;;;;;;8.45;3.58;;;24.10;51.70;;;;;;5075805;28;20040;-71
2022/04/28 06:11:56;;;;;;;4.15;3.10;;;23.90;53.60;;;;;;5075872;28;20109;-72
2022/04/28 06:14:23;;;;;;;3.75;3.30;;;23.80;54.30;;;;;;5076432;28;20061;-71
2022/04/28 06:17:18;;;;;;;5.50;3.83;;;23.70;53.90;;;;;;5088178;28;20045;-72
2022/04/28 06:19:45;;;;;;;4.53;3.28;;;23.50;55.00;;;;;;5077460;28;20045;-71
2022/04/28 06:22:29;;;;;;;5.72;3.38;;;23.50;54.20;;;;;;5056903;28;20078;-72
2022/04/28 06:24:58;;;;;;;6.60;4.03;;;23.30;58.60;;;;;;5060681;28;20097;-72
2022/04/28 06:27:28;;;;;;;3.58;3.17;;;23.40;57.60;;;;;;5076667;28;20041;-71
2022/04/28 06:29:56;;;;;;;3.88;2.92;;;23.50;57.70;;;;;;5076237;28;20032;-68
2022/04/28 06:32:23;;;;;;;3.80;2.90;;;23.40;58.30;;;;;;5076155;28;20047;-71
2022/04/28 06:35:26;;;;;;;3.80;2.58;;;23.50;59.30;;;;;;5065218;28;20056;-68
2022/04/28 06:37:52;;;;;;;3.53;2.80;;;23.60;58.60;;;;;;5077243;28;20045;-69
2022/04/28 06:40:19;;;;;;;3.33;2.75;;;23.60;60.10;;;;;;5075491;28;20053;-73
2022/04/28 06:42:50;;;;;;;5.07;2.83;;;23.70;58.90;;;;;;5076667;28;20060;-73
2022/04/28 06:45:23;;;;;;;5.15;3.53;;;23.70;58.40;;;;;;5076964;28;20044;-73
2022/04/28 06:48:08;;;;;;;7.22;3.30;;;23.80;58.10;;;;;;5076970;28;20044;-72
2022/04/28 06:50:40;;;;;;;4.20;2.97;;;23.80;57.90;;;;;;5076646;28;20055;-73
2022/04/28 06:53:25;;;;;;;4.03;2.70;;;23.80;57.60;;;;;;5075835;28;20036;-74
2022/04/28 06:55:58;;;;;;;4.07;2.95;;;23.90;57.60;;;;;;5076117;28;20032;-73
2022/04/28 06:58:26;;;;;;;3.85;2.72;;;23.90;57.20;;;;;;5075738;28;20036;-73
2022/04/28 07:00:55;;;;;;;4.35;3.53;;;23.90;56.70;;;;;;5075579;28;20052;-71
2022/04/28 07:03:22;;;;;;;3.47;3.17;;;23.90;56.50;;;;;;5074221;28;20033;-72
2022/04/28 07:05:53;;;;;;;4.75;3.63;;;23.80;56.00;;;;;;5075464;28;20044;-71
2022/04/28 07:08:20;;;;;;;6.25;3.40;;;23.90;56.50;;;;;;5075372;28;20091;-71
2022/04/28 07:10:48;;;;;;;6.25;3.50;;;23.90;56.80;;;;;;5075307;28;20060;-71
2022/04/28 07:13:15;;;;;;;5.28;4.22;;;23.80;57.20;;;;;;5075396;28;20049;-71
2022/04/28 07:16:01;;;;;;;6.25;3.75;;;23.90;57.90;;;;;;5075893;28;20047;-70
2022/04/28 07:18:39;;;;;;;4.13;3.65;;;23.90;57.50;;;;;;5075989;28;20033;-69
2022/04/28 07:21:06;;;;;;;4.22;3.65;;;23.90;56.70;;;;;;5075044;28;20433;-72
2022/04/28 07:23:32;;;;;;;4.95;4.45;;;23.90;57.20;;;;;;5076832;28;20043;-71
2022/04/28 07:26:00;;;;;;;4.18;3.72;;;23.80;57.00;;;;;;5075604;28;20091;-75
2022/04/28 07:28:26;;;;;;;4.15;3.60;;;23.80;57.30;;;;;;5075234;28;20040;-72
2022/04/28 07:31:03;;;;;;;5.18;3.97;;;23.80;58.00;;;;;;5074808;28;20068;-71
2022/04/28 07:33:48;;;;;;;6.10;4.22;;;23.70;58.40;;;;;;5072812;28;20040;-72
2022/04/28 07:36:32;;;;;;;5.00;3.65;;;23.60;58.50;;;;;;5075498;28;20045;-73
2022/04/28 07:39:25;;;;;;;7.82;3.63;;;23.60;58.90;;;;;;5060204;28;20045;-72
2022/04/28 07:42:20;;;;;;;4.95;3.70;;;23.70;58.90;;;;;;5071053;28;20076;-73
2022/04/28 07:44:50;;;;;;;4.53;3.53;;;23.70;59.00;;;;;;5059120;28;20057;-72
2022/04/28 07:47:17;;;;;;;4.75;3.60;;;23.70;58.90;;;;;;5075390;28;20056;-68
2022/04/28 07:49:53;;;;;;;4.68;3.85;;;23.80;59.20;;;;;;5038813;28;20047;-66
2022/04/28 07:52:19;;;;;;;3.63;2.95;;;23.90;59.10;;;;;;5055320;28;20037;-68
2022/04/28 07:54:49;;;;;;;3.72;2.78;;;23.80;59.00;;;;;;5071879;28;20045;-69
2022/04/28 07:57:22;;;;;;;4.50;3.22;;;23.80;58.90;;;;;;5071650;28;20044;-67
2022/04/28 07:59:49;;;;;;;3.65;2.90;;;23.90;62.50;;;;;;5071716;28;20029;-69
2022/04/28 08:02:18;;;;;;;4.43;3.53;;;24.20;63.80;;;;;;5054992;28;20064;-67
2022/04/28 08:04:48;;;;;;;5.28;2.97;;;24.40;61.90;;;;;;5074368;28;20078;-69
2022/04/28 08:07:16;;;;;;;4.75;3.13;;;24.50;59.50;;;;;;5075247;28;20045;-68
2022/04/28 08:09:44;;;;;;;3.63;2.58;;;24.40;59.40;;;;;;5075002;28;20064;-71
2022/04/28 08:12:16;;;;;;;4.35;2.60;;;24.30;59.00;;;;;;5075124;28;20096;-69
2022/04/28 08:14:42;;;;;;;4.07;3.03;;;24.30;58.90;;;;;;5074783;28;20056;-68
2022/04/28 08:17:08;;;;;;;4.10;2.97;;;24.20;58.50;;;;;;5075042;28;20048;-71
2022/04/28 08:19:35;;;;;;;5.07;3.42;;;24.20;58.60;;;;;;5075766;28;20045;-68
2022/04/28 08:22:04;;;;;;;3.30;2.90;;;24.30;58.60;;;;;;5058702;28;20045;-68
2022/04/28 08:24:32;;;;;;;3.55;3.25;;;24.20;58.20;;;;;;5074650;28;20037;-72
2022/04/28 08:26:58;;;;;;;4.35;3.28;;;24.20;57.70;;;;;;5075086;28;20060;-71
2022/04/28 08:29:25;;;;;;;3.85;2.75;;;24.30;57.80;;;;;;5074943;28;20037;-72
2022/04/28 08:31:57;;;;;;;3.40;2.33;;;24.50;58.00;;;;;;5074922;28;20040;-73
2022/04/28 08:34:24;;;;;;;5.25;2.95;;;24.30;57.90;;;;;;5075706;28;20105;-74
2022/04/28 08:36:51;;;;;;;4.38;3.25;;;24.20;58.00;;;;;;5078966;28;20076;-74
2022/04/28 08:39:20;;;;;;;5.20;2.85;;;24.30;58.20;;;;;;5078708;28;20063;-72
2022/04/28 08:41:47;;;;;;;4.65;2.90;;;24.30;58.30;;;;;;5078792;28;20045;-71
2022/04/28 08:44:24;;;;;;;3.35;2.17;;;24.30;58.30;;;;;;5062134;28;20105;-70
2022/04/28 08:47:15;;;;;;;5.25;3.25;;;24.30;58.20;;;;;;5078978;28;20029;-71
2022/04/28 08:49:50;;;;;;;5.95;2.78;;;24.30;57.80;;;;;;5075229;28;20060;-72
2022/04/28 08:52:44;;;;;;;3.70;2.92;;;24.30;59.30;;;;;;5057966;28;20038;-71
2022/04/28 08:55:22;;;;;;;5.97;3.33;;;24.40;59.20;;;;;;5074406;28;20108;-72
2022/04/28 08:57:49;;;;;;;5.75;3.08;;;24.40;59.00;;;;;;5078565;28;20037;-72
2022/04/28 09:00:15;;;;;;;3.95;3.03;;;24.40;58.80;;;;;;5078335;28;20060;-71
2022/04/28 09:03:05;;;;;;;6.07;3.15;;;24.40;58.80;;;;;;5078676;28;20112;-73
2022/04/28 09:05:48;;;;;;;2.45;1.63;;;24.40;59.10;;;;;;5078215;28;20029;-72
2022/04/28 09:08:33;;;;;;;3.03;2.72;;;24.40;59.30;;;;;;5078911;28;20041;-72
2022/04/28 09:11:19;;;;;;;4.38;2.92;;;24.40;59.90;;;;;;5078889;28;20041;-72
2022/04/28 09:14:15;;;;;;;5.32;2.83;;;24.40;59.90;;;;;;5067412;28;20059;-71
2022/04/28 09:16:49;;;;;;;3.50;2.38;;;24.40;60.00;;;;;;5078098;28;20035;-72
2022/04/28 09:19:24;;;;;;;3.90;2.70;;;24.40;59.80;;;;;;5078029;28;20131;-71
2022/04/28 09:21:54;;;;;;;6.05;3.13;;;24.50;59.80;;;;;;5077710;28;20033;-71
2022/04/28 09:24:23;;;;;;;4.32;3.45;;;24.40;59.50;;;;;;5086793;28;20041;-71
2022/04/28 09:26:53;;;;;;;5.57;3.00;;;24.40;59.50;;;;;;5081781;28;20033;-70
2022/04/28 09:29:20;;;;;;;4.05;2.63;;;24.30;59.10;;;;;;5097947;28;20033;-70
2022/04/28 09:31:49;;;;;;;4.18;3.22;;;24.30;59.30;;;;;;5097991;28;20055;-70
2022/04/28 09:34:49;;;;;;;4.90;3.45;;;24.40;59.50;;;;;;5026243;28;20054;-68
2022/04/28 09:37:44;;;;;;;13.32;5.65;;;24.50;59.10;;;;;;5097798;28;20033;-70
2022/04/28 09:42:58;;;;;;;6.93;3.60;;;24.60;52.40;;;;;;5059201;28;20146;-70
2022/04/28 09:45:38;;;;;;;9.50;3.70;;;24.70;50.10;;;;;;5077122;28;20063;-69
2022/04/28 09:48:06;;;;;;;9.80;3.90;;;24.70;49.10;;;;;;5077255;28;20063;-70
2022/04/28 09:50:40;;;;;;;4.70;2.73;;;24.60;49.10;;;;;;5077492;28;20065;-71
2022/04/28 09:53:24;;;;;;;7.00;3.58;;;24.70;49.30;;;;;;5077869;28;20036;-70
2022/04/28 09:55:59;;;;;;;6.63;3.95;;;24.50;48.60;;;;;;5077415;28;20044;-70
2022/04/28 09:58:27;;;;;;;5.18;3.10;;;24.70;49.50;;;;;;5077389;28;20041;-70
2022/04/28 10:01:02;;;;;;;9.00;3.63;;;24.60;48.50;;;;;;5073984;28;20049;-70
2022/04/28 10:03:35;;;;;;;6.55;3.58;;;24.50;48.50;;;;;;5076623;28;20044;-72
2022/04/28 10:06:03;;;;;;;7.00;3.42;;;24.60;48.40;;;;;;5076793;28;20045;-71
2022/04/28 10:08:50;;;;;;;7.95;3.38;;;24.60;48.80;;;;;;5077557;28;20037;-71
2022/04/28 10:11:22;;;;;;;5.97;2.78;;;24.60;51.90;;;;;;5076947;28;20041;-70
2022/04/28 10:13:50;;;;;;;4.93;3.03;;;24.50;54.00;;;;;;5076864;28;20055;-70
2022/04/28 10:16:21;;;;;;;5.07;3.13;;;24.60;52.60;;;;;;5076012;28;20037;-71
2022/04/28 10:18:50;;;;;;;8.80;3.63;;;24.80;54.00;;;;;;5076885;28;20041;-70
2022/04/28 10:21:23;;;;;;;5.57;3.17;;;24.80;54.20;;;;;;5076724;28;20091;-70
2022/04/28 10:32:58;;;;;;;5.55;3.03;;;24.80;50.30;;;;;;5076632;28;20047;-70
2022/04/28 10:35:37;;;;;;;4.47;3.10;;;24.80;48.60;;;;;;5076793;28;20056;-69
2022/04/28 10:38:11;;;;;;;4.72;2.90;;;24.80;58.20;;;;;;5076465;28;20084;-69
2022/04/28 10:40:58;;;;;;;2.97;2.72;;;24.80;56.40;;;;;;5076844;28;20053;-69
2022/04/28 10:43:33;;;;;;;5.68;3.00;;;24.70;55.80;;;;;;5076997;28;20104;-71
2022/04/28 10:46:09;;;;;;;3.75;2.70;;;24.80;56.20;;;;;;5075990;28;20060;-70
2022/04/28 10:48:42;;;;;;;4.25;2.78;;;24.70;56.10;;;;;;5076398;28;20043;-69
2022/04/28 10:51:15;;;;;;;3.90;2.58;;;24.70;55.90;;;;;;5076887;28;20037;-70
2022/04/28 10:54:03;;;;;;;3.88;3.05;;;24.60;55.20;;;;;;5076657;28;20079;-70
2022/04/28 10:56:39;;;;;;;7.10;3.47;;;24.60;55.30;;;;;;5074840;28;20060;-70
2022/04/28 10:59:37;;;;;;;6.18;2.97;;;24.60;55.10;;;;;;5075470;28;20072;-69
2022/04/28 11:02:15;;;;;;;3.35;2.72;;;24.50;55.60;;;;;;5077175;28;20045;-69
2022/04/28 11:05:01;;;;;;;4.20;3.00;;;24.40;57.00;;;;;;5076770;28;20053;-69
2022/04/28 11:07:30;;;;;;;5.40;3.30;;;24.60;57.40;;;;;;5076375;28;20037;-70
2022/04/28 11:10:07;;;;;;;3.95;2.72;;;24.40;57.60;;;;;;5076652;28;20115;-69
2022/04/28 11:12:34;;;;;;;3.78;3.28;;;24.30;58.40;;;;;;5075371;28;20045;-70
2022/04/28 11:15:08;;;;;;;4.15;2.97;;;24.60;58.80;;;;;;5076356;28;20056;-71
2022/04/28 11:17:38;;;;;;;4.95;3.30;;;24.60;56.60;;;;;;5075755;28;20045;-70
2022/04/28 11:20:10;;;;;;;4.70;3.10;;;24.60;57.60;;;;;;5076172;28;20067;-70
2022/04/28 11:22:47;;;;;;;5.25;2.85;;;24.50;57.40;;;;;;5075665;28;20100;-71
2022/04/28 11:25:16;;;;;;;4.32;2.90;;;24.50;57.50;;;;;;5075202;28;20135;-68
2022/04/28 11:27:46;;;;;;;4.70;3.15;;;24.50;57.70;;;;;;5075701;28;20035;-68
2022/04/28 11:30:21;;;;;;;4.05;3.03;;;24.60;57.20;;;;;;5075019;28;20033;-69
2022/04/28 11:32:49;;;;;;;4.25;2.95;;;24.60;57.50;;;;;;5076014;28;20048;-68
2022/04/28 11:35:16;;;;;;;4.03;3.15;;;24.40;57.90;;;;;;5075983;28;20048;-68
2022/04/28 11:37:43;;;;;;;3.63;3.10;;;24.60;58.70;;;;;;5075795;28;20037;-68
2022/04/28 11:40:13;;;;;;;4.20;2.95;;;24.60;58.40;;;;;;5075664;28;20049;-68
2022/04/28 11:42:41;;;;;;;4.78;3.17;;;24.60;58.10;;;;;;5075961;28;20045;-69
2022/04/28 11:45:08;;;;;;;5.50;2.92;;;24.70;58.00;;;;;;5075879;28;20040;-68
2022/04/28 11:47:43;;;;;;;5.90;3.55;;;24.60;58.00;;;;;;5075295;28;20036;-70
2022/04/28 11:50:21;;;;;;;2.78;2.58;;;24.60;57.80;;;;;;5075849;28;20132;-69
2022/04/28 11:52:58;;;;;;;4.45;2.97;;;24.60;58.00;;;;;;5076017;28;20070;-71
2022/04/28 11:55:28;;;;;;;3.95;3.08;;;24.50;58.90;;;;;;5058445;28;20037;-71
2022/04/28 11:57:55;;;;;;;5.43;2.95;;;24.50;59.40;;;;;;5075064;28;20270;-70
2022/04/28 12:00:24;;;;;;;6.22;3.45;;;24.50;59.70;;;;;;5075467;28;20044;-70
2022/04/28 12:02:52;;;;;;;3.50;2.80;;;24.60;59.20;;;;;;5075302;28;20041;-70
2022/04/28 12:05:27;;;;;;;5.60;2.90;;;24.50;58.30;;;;;;5058262;28;20052;-69
2022/04/28 12:07:54;;;;;;;8.57;3.08;;;24.50;57.50;;;;;;5076037;28;20056;-70
2022/04/28 12:16:02;;;;;;;3.22;2.88;;;24.50;57.70;;;;;;5079669;28;20068;-71
2022/04/28 12:21:32;;;;;;;3.83;3.03;;;24.50;58.20;;;;;;5079124;28;20072;-70
2022/04/28 12:24:00;;;;;;;4.10;2.55;;;24.60;58.60;;;;;;5079702;28;20056;-71
2022/04/28 12:26:32;;;;;;;4.38;2.97;;;24.60;58.40;;;;;;5079316;28;20047;-70
2022/04/28 12:29:12;;;;;;;4.43;3.22;;;24.60;58.60;;;;;;5079118;28;20033;-71
2022/04/28 12:31:39;;;;;;;5.38;3.28;;;24.50;58.60;;;;;;5078763;28;20096;-70
2022/04/28 12:34:10;;;;;;;3.28;2.72;;;24.60;58.10;;;;;;5079523;28;20048;-72
2022/04/28 12:36:53;;;;;;;4.72;2.88;;;24.60;58.20;;;;;;5079087;28;20051;-70
2022/04/28 12:39:20;;;;;;;5.00;2.90;;;24.60;57.70;;;;;;5079546;28;20037;-70
2022/04/28 12:41:48;;;;;;;3.60;2.88;;;24.60;58.20;;;;;;5078699;28;20048;-72
2022/04/28 12:44:16;;;;;;;3.63;2.80;;;24.60;58.70;;;;;;5078661;28;20037;-70
2022/04/28 12:46:45;;;;;;;3.47;2.58;;;24.60;58.70;;;;;;5078159;28;20075;-71
2022/04/28 12:49:16;;;;;;;3.78;2.78;;;24.60;58.10;;;;;;5079172;28;20052;-69
2022/04/28 12:51:52;;;;;;;4.88;2.65;;;24.50;58.90;;;;;;5077924;28;20119;-71
2022/04/28 12:54:27;;;;;;;4.57;3.45;;;24.60;59.10;;;;;;5077101;28;20048;-71
2022/04/28 12:57:04;;;;;;;3.33;2.75;;;24.60;58.90;;;;;;5061213;28;20041;-69
2022/04/28 12:59:35;;;;;;;6.35;3.22;;;24.70;58.50;;;;;;5078857;28;20045;-71
2022/04/28 13:02:01;;;;;;;5.95;3.30;;;24.60;58.70;;;;;;5061053;28;20053;-68
2022/04/28 13:04:28;;;;;;;3.67;3.05;;;24.60;58.80;;;;;;5058774;28;20049;-71
2022/04/28 13:06:55;;;;;;;4.18;2.97;;;24.70;59.00;;;;;;5058824;28;20030;-71
2022/04/28 13:09:22;;;;;;;3.60;3.13;;;24.60;59.20;;;;;;5058869;28;20034;-73
2022/04/28 13:11:49;;;;;;;4.88;3.00;;;24.70;58.90;;;;;;5058299;28;20409;-73
2022/04/28 13:14:19;;;;;;;5.47;3.33;;;24.70;58.50;;;;;;5058779;28;20038;-72
2022/04/28 13:16:50;;;;;;;4.32;3.53;;;24.60;58.20;;;;;;5058396;28;20170;-71
2022/04/28 13:19:18;;;;;;;3.80;2.78;;;24.70;58.50;;;;;;5063880;28;20085;-71
2022/04/28 13:21:45;;;;;;;4.25;2.95;;;24.60;58.70;;;;;;5077408;28;20048;-72
2022/04/28 13:24:12;;;;;;;3.03;2.78;;;24.70;58.20;;;;;;5073132;28;20391;-72
2022/04/28 13:26:38;;;;;;;6.57;3.25;;;24.80;61.40;;;;;;5058272;28;20044;-71
2022/04/28 13:29:06;;;;;;;3.42;3.00;;;24.90;59.30;;;;;;5058520;28;20064;-72
2022/04/28 13:31:32;;;;;;;6.00;3.50;;;24.90;59.00;;;;;;5058288;28;20037;-72
2022/04/28 13:33:58;;;;;;;5.28;2.33;;;24.80;58.60;;;;;;5058199;28;20072;-71
2022/04/28 13:36:25;;;;;;;4.15;2.53;;;24.70;58.80;;;;;;5057626;28;20051;-71
2022/04/28 13:38:52;;;;;;;3.05;2.72;;;24.60;58.30;;;;;;5058155;28;20042;-71
2022/04/28 13:41:18;;;;;;;4.90;2.97;;;24.60;58.60;;;;;;5057653;28;20053;-70
2022/04/28 13:43:45;;;;;;;3.78;2.67;;;24.50;59.20;;;;;;5058164;28;20048;-72
2022/04/28 13:46:15;;;;;;;4.10;3.05;;;24.50;59.50;;;;;;5058066;28;20064;-71
2022/04/28 13:48:41;;;;;;;8.50;2.25;;;24.50;59.70;;;;;;5057915;28;20063;-70